createdAt,value
2023-05-06T00:02:50.168Z,46.40
2023-05-06T00:08:04.541Z,46.47
2023-05-06T00:13:10.118Z,46.60
2023-05-06T00:18:15.697Z,46.87
2023-05-06T00:23:21.186Z,46.80
2023-05-06T00:28:53.491Z,47.09
2023-05-06T00:33:58.983Z,47.26
2023-05-06T00:39:06.180Z,47.35
2023-05-06T00:44:11.691Z,47.40
2023-05-06T00:49:17.184Z,47.57
2023-05-06T00:54:22.927Z,47.69
2023-05-06T00:59:35.488Z,47.67
2023-05-06T01:04:41.763Z,47.99
2023-05-06T01:10:02.023Z,48.08
2023-05-06T01:15:24.880Z,48.26
2023-05-06T01:20:43.685Z,48.37
2023-05-06T01:25:49.178Z,48.67
2023-05-06T01:30:57.687Z,48.94
2023-05-06T01:36:12.348Z,49.15
2023-05-06T01:41:19.104Z,49.58
2023-05-06T01:46:26.603Z,49.72
2023-05-06T01:51:36.887Z,50.09
2023-05-06T01:56:44.865Z,50.30
2023-05-06T02:02:04.156Z,50.65
2023-05-06T02:07:09.969Z,50.80
2023-05-06T02:12:15.766Z,51.14
2023-05-06T02:17:21.201Z,51.26
2023-05-06T02:22:26.704Z,51.77
2023-05-06T02:27:33.166Z,51.98
2023-05-06T02:32:38.700Z,52.44
2023-05-06T02:37:44.252Z,52.81
2023-05-06T02:42:55.815Z,53.11
2023-05-06T02:48:01.353Z,53.58
2023-05-06T02:53:09.090Z,54.15
2023-05-06T02:58:14.516Z,54.40
2023-05-06T03:03:20.030Z,54.74
2023-05-06T03:08:25.603Z,54.99
2023-05-06T03:13:32.704Z,55.64
2023-05-06T03:24:12.553Z,56.44
2023-05-06T03:29:18.230Z,56.83
2023-05-06T03:34:35.024Z,57.33
2023-05-06T03:39:48.681Z,58.07
2023-05-06T03:44:55.467Z,58.51
2023-05-06T03:50:15.050Z,59.04
2023-05-06T03:55:21.062Z,59.43
2023-05-06T04:00:41.572Z,59.74
2023-05-06T04:05:49.918Z,60.04
2023-05-06T04:11:17.554Z,60.66
2023-05-06T04:16:36.993Z,60.75
2023-05-06T04:21:47.169Z,61.15
2023-05-06T04:27:07.761Z,61.59
2023-05-06T04:32:13.781Z,62.29
2023-05-06T04:37:53.767Z,62.72
2023-05-06T04:43:08.697Z,63.20
2023-05-06T04:48:22.934Z,64.43
2023-05-06T04:53:29.507Z,64.45
2023-05-06T04:58:35.745Z,64.90
2023-05-06T05:03:41.573Z,66.13
2023-05-06T05:08:47.554Z,66.12
2023-05-06T05:14:07.075Z,65.03
2023-05-06T05:19:13.147Z,65.28
2023-05-06T05:24:21.092Z,65.66
2023-05-06T05:29:28.678Z,66.19
2023-05-06T05:34:36.324Z,66.64
2023-05-06T05:39:42.415Z,66.94
2023-05-06T05:44:48.676Z,67.39
2023-05-06T05:49:54.567Z,67.58
2023-05-06T05:55:01.922Z,67.31
2023-05-06T06:00:10.589Z,67.62
2023-05-06T06:05:18.710Z,67.71
2023-05-06T06:10:24.296Z,68.16
2023-05-06T06:15:30.075Z,68.48
2023-05-06T06:20:36.612Z,68.51
2023-05-06T06:25:42.656Z,68.61
2023-05-06T06:30:48.365Z,68.75
2023-05-06T06:35:55.804Z,68.89
2023-05-06T06:41:01.592Z,69.12
2023-05-06T06:46:08.208Z,69.26
2023-05-06T06:51:13.715Z,69.18
2023-05-06T06:56:19.194Z,69.55
2023-05-06T07:01:24.758Z,69.59
2023-05-06T07:06:34.144Z,69.96
2023-05-06T07:11:40.909Z,69.91
2023-05-06T07:16:47.621Z,70.06
2023-05-06T07:21:53.424Z,70.28
2023-05-06T07:26:59.120Z,70.14
2023-05-06T07:32:21.708Z,70.40
2023-05-06T07:43:18.759Z,70.39
2023-05-06T07:48:41.278Z,70.92
2023-05-06T07:53:47.272Z,70.45
2023-05-06T07:58:52.768Z,71.01
2023-05-06T08:04:00.084Z,70.84
2023-05-06T08:09:06.581Z,71.20
2023-05-06T08:14:12.223Z,72.08
2023-05-06T08:19:17.865Z,71.82
2023-05-06T08:24:23.366Z,71.08
2023-05-06T08:29:28.994Z,70.97
2023-05-06T08:34:35.091Z,70.89
2023-05-06T08:39:41.223Z,70.91
2023-05-06T08:44:47.892Z,71.19
2023-05-06T08:49:54.568Z,71.61
2023-05-06T08:55:02.928Z,71.22
2023-05-06T09:00:11.763Z,71.85
2023-05-06T09:05:17.377Z,72.24
2023-05-06T09:10:23.115Z,72.32
2023-05-06T09:15:30.141Z,72.28
2023-05-06T09:20:59.367Z,72.21
2023-05-06T09:26:04.733Z,71.94
2023-05-06T09:31:10.348Z,71.54
2023-05-06T09:36:16.569Z,71.52
2023-05-06T09:41:27.550Z,72.00
2023-05-06T09:46:33.676Z,72.56
2023-05-06T09:51:39.816Z,72.63
2023-05-06T09:56:46.966Z,73.12
2023-05-06T10:01:55.516Z,73.78
2023-05-06T10:07:04.285Z,73.78
2023-05-06T10:12:10.856Z,73.52
2023-05-06T10:17:19.288Z,73.37
2023-05-06T10:22:34.613Z,73.01
2023-05-06T10:27:44.709Z,72.94
2023-05-06T10:32:53.364Z,72.92
2023-05-06T10:38:01.136Z,73.55
2023-05-06T10:43:27.218Z,73.04
2023-05-06T10:48:34.019Z,73.50
2023-05-06T10:54:19.409Z,73.63
2023-05-06T10:59:29.749Z,73.10
2023-05-06T11:04:35.709Z,73.72
2023-05-06T11:10:08.417Z,73.50
2023-05-06T11:27:17.343Z,74.02
2023-05-06T11:32:25.585Z,74.10
2023-05-06T11:37:32.194Z,74.41
2023-05-06T11:42:41.598Z,73.80
2023-05-06T11:47:47.332Z,74.01
2023-05-06T11:52:56.909Z,73.67
2023-05-06T11:58:02.465Z,73.73
2023-05-06T12:03:11.670Z,74.21
2023-05-06T12:08:30.172Z,74.45
2023-05-06T12:13:52.562Z,74.97
2023-05-06T12:19:40.178Z,75.19
2023-05-06T12:24:46.565Z,75.67
2023-05-06T12:29:54.853Z,75.36
2023-05-06T12:35:02.311Z,75.40
2023-05-06T12:40:21.451Z,75.51
2023-05-06T12:45:27.401Z,75.40
2023-05-06T12:50:42.514Z,74.21
2023-05-06T12:56:03.635Z,74.67
2023-05-06T13:01:09.241Z,74.56
2023-05-06T13:06:15.883Z,73.75
2023-05-06T13:11:29.616Z,73.32
2023-05-06T13:16:35.494Z,73.60
2023-05-06T13:21:41.658Z,72.88
2023-05-06T13:26:47.073Z,73.75
2023-05-06T13:31:52.785Z,73.45
2023-05-06T13:36:59.384Z,73.71
2023-05-06T13:42:08.014Z,73.81
2023-05-06T13:47:13.194Z,73.90
2023-05-06T13:52:19.413Z,73.92
2023-05-06T13:57:26.165Z,74.02
2023-05-06T14:02:31.783Z,73.74
2023-05-06T14:07:39.669Z,73.97
2023-05-06T14:12:45.650Z,74.29
2023-05-06T14:17:51.163Z,74.16
2023-05-06T14:22:56.746Z,74.08
2023-05-06T14:28:02.880Z,74.77
2023-05-06T14:33:08.487Z,75.09
2023-05-06T14:38:14.055Z,75.19
2023-05-06T14:43:19.569Z,74.62
2023-05-06T14:48:25.610Z,74.92
2023-05-06T14:53:31.269Z,74.83
2023-05-06T14:58:36.712Z,74.88
2023-05-06T15:03:45.375Z,75.30
2023-05-06T15:09:00.728Z,75.18
2023-05-06T15:14:06.151Z,75.16
2023-05-06T15:19:11.693Z,75.19
2023-05-06T15:24:17.269Z,75.43
2023-05-06T15:29:22.762Z,75.21
2023-05-06T15:34:28.210Z,75.37
2023-05-06T15:39:38.308Z,74.82
2023-05-06T15:44:43.952Z,75.37
2023-05-06T15:49:54.542Z,74.92
2023-05-06T15:54:59.419Z,74.81
2023-05-06T16:00:05.581Z,75.21
2023-05-06T16:05:11.454Z,74.70
2023-05-06T16:10:17.011Z,74.81
2023-05-06T16:15:23.026Z,75.32
2023-05-06T16:20:29.770Z,75.11
2023-05-06T16:25:37.385Z,74.50
2023-05-06T16:30:46.451Z,75.29
2023-05-06T16:35:52.107Z,75.12
2023-05-06T16:40:57.628Z,74.96
2023-05-06T16:46:03.126Z,74.83
2023-05-06T16:51:10.474Z,75.58
2023-05-06T16:56:16.163Z,74.72
2023-05-06T17:01:21.660Z,74.89
2023-05-06T17:06:28.912Z,74.51
2023-05-06T17:11:34.526Z,74.60
2023-05-06T17:16:40.413Z,74.84
2023-05-06T17:21:45.982Z,74.36
2023-05-06T17:26:51.424Z,74.26
2023-05-06T17:31:56.958Z,74.37
2023-05-06T17:37:04.117Z,74.26
2023-05-06T17:42:10.254Z,74.16
2023-05-06T17:47:17.534Z,74.36
2023-05-06T17:52:24.652Z,74.32
2023-05-06T17:57:30.577Z,74.21
2023-05-06T18:02:38.204Z,74.10
2023-05-06T18:07:43.982Z,74.25
2023-05-06T18:12:49.598Z,74.35
2023-05-06T18:17:55.726Z,74.41
2023-05-06T18:23:02.402Z,74.26
2023-05-06T18:28:08.637Z,74.21
2023-05-06T18:33:14.772Z,74.25
2023-05-06T18:38:20.330Z,73.96
2023-05-06T18:43:25.899Z,74.22
2023-05-06T18:48:32.202Z,74.21
2023-05-06T18:53:38.201Z,74.44
2023-05-06T18:58:43.621Z,74.30
2023-05-06T19:03:49.286Z,74.18
2023-05-06T19:08:57.656Z,74.29
2023-05-06T19:14:04.971Z,74.19
2023-05-06T19:19:10.449Z,74.25
2023-05-06T19:24:16.115Z,74.52
2023-05-06T19:29:21.571Z,74.34
2023-05-06T19:34:27.201Z,74.17
2023-05-06T19:39:34.457Z,74.47
2023-05-06T19:44:39.876Z,74.39
2023-05-06T19:49:45.478Z,74.20
2023-05-06T19:54:52.475Z,74.37
2023-05-06T20:00:18.887Z,74.14
2023-05-06T20:05:25.028Z,74.26
2023-05-06T20:10:30.993Z,74.17
2023-05-06T20:15:36.622Z,74.29
2023-05-06T20:20:43.671Z,74.20
2023-05-06T20:25:49.486Z,74.13
2023-05-06T20:30:55.826Z,74.02
2023-05-06T20:36:01.582Z,73.98
2023-05-06T20:41:07.476Z,74.11
2023-05-06T20:46:13.565Z,74.16
2023-05-06T20:51:19.720Z,74.08
2023-05-06T20:56:26.279Z,74.01
2023-05-06T21:01:31.857Z,73.95
2023-05-06T21:06:38.644Z,73.65
2023-05-06T21:11:44.068Z,73.95
2023-05-06T21:16:49.651Z,73.83
2023-05-06T21:21:55.174Z,74.00
2023-05-06T21:27:00.801Z,73.86
2023-05-06T21:32:06.743Z,73.92
2023-05-06T21:37:12.176Z,73.99
2023-05-06T21:42:17.654Z,73.87
2023-05-06T21:47:23.477Z,73.94
2023-05-06T21:52:29.135Z,74.05
2023-05-06T21:57:34.795Z,74.16
2023-05-06T22:02:41.415Z,74.13
2023-05-06T22:07:47.454Z,73.94
2023-05-06T22:12:52.959Z,73.96
2023-05-06T22:17:59.324Z,73.97
2023-05-06T22:23:05.586Z,74.05
2023-05-06T22:28:11.158Z,73.94
2023-05-06T22:33:16.656Z,73.93
2023-05-06T22:38:22.171Z,73.91
2023-05-06T22:43:27.608Z,73.85
2023-05-06T22:48:33.202Z,73.80
2023-05-06T22:53:38.896Z,73.86
2023-05-06T22:58:45.011Z,73.78
2023-05-06T23:03:50.515Z,73.73
2023-05-06T23:08:57.052Z,73.62
2023-05-06T23:14:02.505Z,73.73
2023-05-06T23:19:07.931Z,73.66
2023-05-06T23:24:13.444Z,73.68
2023-05-06T23:29:18.975Z,73.64
2023-05-06T23:34:25.988Z,73.94
2023-05-06T23:39:31.536Z,74.07
2023-05-06T23:44:37.831Z,74.18
2023-05-06T23:49:43.529Z,74.21
2023-05-06T23:54:49.109Z,74.19
2023-05-06T23:59:54.554Z,74.39
